x

West Gulf - 207 Nm East Of Brownsville, Tx (42002) Wave Buoy

6:50pm - Tue 7th Jul 2015 All times are CDT. -5 hours from GMT.

  • Sig Wave height 3.6ft
  • Swell Direction
  • Peak Period 5s
  • Average Period 5s
  • Wind
    16mph, 20mph gusts
  • Sea Temp 84°f
  • Air Temp 85°f
  • Sea Pressure 1016.1mb
  • West Gulf - 207 Nm East Of Brownsville, Tx
  • West Gulf - 207 Nm East Of Brownsville, Tx

More Historic Weather Station data

Upgrade to MSW Pro to gain access to the past 30 days of data for over 8000 Wavebouys and Weather Stations around the globe.

Join Pro

Comparision Forecast

View Surf forecast
   
Tue 07/07 6:50pm 3.5ft 5s 5s 16 20 mph 1016.1mb 84f 85f
5:50pm 3.5ft 5s 5s 16 18 mph 1016.5mb 84f 85f
4:50pm 3.5ft 6s 4s 16 18 mph 1016.9mb 84f 85f
3:50pm 4ft 5s 4s 16 18 mph 1017.5mb 84f 85f
2:50pm 3.5ft 5s 4s 13 16 mph 1017.7mb 84f 85f
1:50pm 4ft 5s 4s 16 20 mph 1017.9mb 84f 85f
12:50pm 3.5ft 5s 4s 18 20 mph 1017.9mb 84f 85f
11:50am 3.5ft 5s 4s 18 22 mph 1018.3mb 84f 85f
10:50am 3.5ft 5s 4s 20 22 mph 1018.1mb 84f 85f
9:50am 3.5ft 6s 4s 18 20 mph 1018mb 84f 85f
8:50am 3.5ft 6s 4s 18 22 mph 1017.9mb 84f 85f
7:50am 3.5ft 6s 4s 18 22 mph 1017.3mb 84f 84f
6:50am 3.5ft 7s 4s 18 20 mph 1017.2mb 84f 84f
5:50am 3.5ft 7s 5s 18 20 mph 1017.4mb 84f 84f
4:50am 3.5ft 6s 5s 13 16 mph 1017.6mb 84f 84f
3:50am 3.5ft 7s 5s 11 13 mph 1018mb 84f 84f
2:50am 3.5ft 7s 5s 9 11 mph 1018.2mb 84f 84f
1:50am 3.5ft 6s 5s 11 13 mph 1018mb 84f 84f
12:50am 3.5ft 6s 5s 13 16 mph 1017.6mb 84f 84f
Mon 07/06 11:50pm 3.5ft 6s 5s 16 18 mph 1017.1mb 84f 84f
10:50pm 3.5ft 6s 5s 18 20 mph 1016.4mb 84f 84f
9:50pm 3.5ft 5s 5s 16 18 mph 1016.6mb 84f 84f
8:50pm 3.5ft 6s 5s 13 16 mph 1016.7mb 84f 84f
7:50pm 3.5ft 5s 4s 13 18 mph 1016.7mb 84f 85f
6:50pm 3.5ft 5s 4s 16 18 mph 1017mb 84f 85f
5:50pm 3.5ft 5s 4s 16 18 mph 1017.4mb 84f 85f
4:50pm 3.5ft 5s 4s 13 16 mph 1017.9mb 84f 85f
3:50pm 3.5ft 6s 4s 16 18 mph 1018.2mb 84f 85f
2:50pm 3.5ft 5s 4s 16 18 mph 1018.4mb 84f 85f
1:50pm 3.5ft 6s 4s 16 20 mph 1018.9mb 84f 85f
12:50pm 4ft 6s 4s 16 18 mph 1019.4mb 84f 85f
11:50am 3.5ft 6s 4s 16 18 mph 1019.4mb 84f 85f
10:50am 3.5ft 5s 4s 16 18 mph 1019.4mb 84f 85f
9:50am 3.5ft 5s 4s 18 20 mph 1019mb 84f 85f
8:50am 3.5ft 6s 4s 18 22 mph 1018.8mb 84f 85f
7:50am 3.5ft 6s 4s 18 20 mph 1018.3mb 84f 85f
6:50am 3.5ft 6s 4s 20
mph
1018.4mb 84f 84f
5:50am 3.5ft 6s 4s 18 20 mph 1017.9mb 84f 84f
4:50am 3.5ft 6s 4s 16 20 mph 1017.6mb 84f 84f
3:50am 3ft 6s 4s 18 20 mph 1017.6mb 84f 84f
2:50am 3.5ft 6s 4s 18 20 mph 1018.2mb 84f 84f
1:50am 3.5ft 6s 4s 18 20 mph 1018.5mb 84f 84f
12:50am 3.5ft 6s 4s 16 18 mph 1018.6mb 84f 84f
Sun 07/05 11:50pm 3ft 6s 4s 16 18 mph 1018.7mb 84f 84f
10:50pm 3ft 6s 5s 16
mph
1018.6mb 84f 84f
9:50pm 3ft 5s 4s 16 18 mph 1017.9mb 84f 84f
8:50pm 3.5ft 7s 4s 13 16 mph 1017.7mb 84f 85f
7:50pm 3ft 5s 4s 16 18 mph 1016.9mb 84f 85f
6:50pm 3ft 6s 4s 16 18 mph 1016.9mb 84f 85f
5:50pm 3.5ft 5s 4s 13 18 mph 1017.1mb 84f 85f
4:50pm 3ft 5s 4s 16 18 mph 1017.4mb 84f 85f
3:50pm 3.5ft 6s 4s 13 18 mph 1018.1mb 84f 85f
2:50pm 3.5ft 5s 4s 16 18 mph 1018.3mb 84f 85f
1:50pm 3ft 5s 4s 16 18 mph 1018.7mb 84f 85f
12:50pm 3.5ft 5s 4s 13 16 mph 1019.1mb 84f 85f
11:50am 3.5ft 6s 4s 16 18 mph 1019.4mb 84f 85f
10:50am 3.5ft 6s 4s 16 20 mph 1019.3mb 84f 85f
9:50am 3.5ft 6s 4s 18 20 mph 1019mb 84f 85f
8:50am 3.5ft 6s 4s 16 18 mph 1019.2mb 84f 85f
7:50am 3ft 6s 4s 16 18 mph 1018.9mb 84f 84f
6:50am 3ft 6s 4s 13 16 mph 1018.4mb 84f 84f
5:50am 3ft 6s 4s 13 16 mph 1017.9mb 84f 84f
4:50am 3ft 6s 4s 13 16 mph 1017.7mb 84f 84f
3:50am 3ft 6s 4s 13 16 mph 1017.6mb 84f 84f
2:50am 3ft 6s 4s 16 18 mph 1017.4mb 84f 84f
1:50am 3ft 6s 4s 16 20 mph 1017.8mb 84f 84f
12:50am 3ft 6s 4s 16 18 mph 1017.9mb 84f 84f
Sat 07/04 11:50pm 3ft 7s 4s 16 18 mph 1017.6mb 84f 84f
10:50pm 3ft 6s 4s 13 16 mph 1017.1mb 84f 84f
9:50pm 3ft 6s 4s 13 16 mph 1016.2mb 84f 84f
8:50pm 3ft 6s 5s 13 16 mph 1015.7mb 84f 85f
7:50pm 3ft 6s 5s 11 13 mph 1016mb 84f 85f
6:50pm 3ft 6s 4s 11 13 mph 1015.7mb 84f 85f
5:50pm 3ft 5s 4s 13 16 mph 1015.8mb 84f 85f
4:50pm 3ft 5s 4s 13
mph
1016.1mb 84f 85f
3:50pm 3.5ft 6s 4s 13 16 mph 1016.4mb 84f 85f
2:50pm 3.5ft 6s 4s 13 16 mph 1016.7mb 84f 85f
1:50pm 3.5ft 5s 4s 16 18 mph 1017mb 84f 85f
12:50pm 3.5ft 5s 4s 16 18 mph 1017.2mb 84f 85f
11:50am 3.5ft 5s 4s 16 18 mph 1017.5mb 84f 85f
10:50am 3.5ft 6s 4s 16 20 mph 1017.4mb 84f 85f
9:50am 3ft 5s 4s 16 18 mph 1017.3mb 84f 84f
8:50am 3ft 5s 4s 18 20 mph 1017mb 84f 84f
7:50am 3ft 5s 4s 16 18 mph 1016.6mb 84f 84f
6:50am 3ft 5s 4s 16 18 mph 1016.2mb 84f 84f
5:50am 3ft 7s 4s 13 18 mph 1015.8mb 84f 84f
4:50am 3ft 6s 4s 13 16 mph 1015.8mb 84f 84f
3:50am 3ft 6s 4s 13 16 mph 1015.6mb 84f 84f
2:50am 2.5ft 6s 4s 13 18 mph 1015.9mb 84f 84f
1:50am 2.5ft 7s 4s 13 18 mph 1016.2mb 84f 84f